sensor_id;sensor_type;location;lat;lon;timestamp;P1;durP1;ratioP1;P2;durP2;ratioP2
65597;SDS011;52267;51.984;20.956;2023-02-24T00:02:03;50.60;;;28.00;;
65597;SDS011;52267;51.984;20.956;2023-02-24T00:04:36;59.00;;;29.60;;
65597;SDS011;52267;51.984;20.956;2023-02-24T00:07:10;49.70;;;24.50;;
65597;SDS011;52267;51.984;20.956;2023-02-24T00:09:38;35.80;;;19.30;;
65597;SDS011;52267;51.984;20.956;2023-02-24T00:12:10;51.00;;;25.10;;
65597;SDS011;52267;51.984;20.956;2023-02-24T00:14:42;60.00;;;29.50;;
65597;SDS011;52267;51.984;20.956;2023-02-24T00:17:11;49.90;;;26.70;;
65597;SDS011;52267;51.984;20.956;2023-02-24T00:19:42;50.20;;;27.10;;
65597;SDS011;52267;51.984;20.956;2023-02-24T00:22:09;51.60;;;25.70;;
65597;SDS011;52267;51.984;20.956;2023-02-24T00:24:36;53.50;;;27.70;;
65597;SDS011;52267;51.984;20.956;2023-02-24T00:27:04;45.20;;;22.80;;
65597;SDS011;52267;51.984;20.956;2023-02-24T00:29:33;51.70;;;24.60;;
65597;SDS011;52267;51.984;20.956;2023-02-24T00:32:03;50.80;;;26.70;;
65597;SDS011;52267;51.984;20.956;2023-02-24T00:34:34;42.00;;;22.80;;
65597;SDS011;52267;51.984;20.956;2023-02-24T00:37:04;54.50;;;29.10;;
65597;SDS011;52267;51.984;20.956;2023-02-24T00:39:35;51.30;;;25.40;;
65597;SDS011;52267;51.984;20.956;2023-02-24T00:42:04;60.40;;;29.70;;
65597;SDS011;52267;51.984;20.956;2023-02-24T00:44:38;53.00;;;27.30;;
65597;SDS011;52267;51.984;20.956;2023-02-24T00:47:07;46.40;;;24.80;;
65597;SDS011;52267;51.984;20.956;2023-02-24T00:49:36;54.90;;;27.90;;
65597;SDS011;52267;51.984;20.956;2023-02-24T00:52:13;52.10;;;26.00;;
65597;SDS011;52267;51.984;20.956;2023-02-24T00:54:42;47.00;;;21.40;;
65597;SDS011;52267;51.984;20.956;2023-02-24T00:57:10;36.20;;;18.70;;
65597;SDS011;52267;51.984;20.956;2023-02-24T00:59:38;47.20;;;22.20;;
65597;SDS011;52267;51.984;20.956;2023-02-24T01:02:06;48.50;;;23.40;;
65597;SDS011;52267;51.984;20.956;2023-02-24T01:04:34;33.80;;;17.30;;
65597;SDS011;52267;51.984;20.956;2023-02-24T01:07:03;48.00;;;23.10;;
65597;SDS011;52267;51.984;20.956;2023-02-24T01:09:37;36.30;;;19.40;;
65597;SDS011;52267;51.984;20.956;2023-02-24T01:12:09;37.50;;;19.50;;
65597;SDS011;52267;51.984;20.956;2023-02-24T01:14:56;56.10;;;25.60;;
65597;SDS011;52267;51.984;20.956;2023-02-24T01:17:23;45.40;;;23.20;;
65597;SDS011;52267;51.984;20.956;2023-02-24T01:19:51;29.10;;;15.60;;
65597;SDS011;52267;51.984;20.956;2023-02-24T01:22:19;44.00;;;21.50;;
65597;SDS011;52267;51.984;20.956;2023-02-24T01:24:47;42.70;;;21.50;;
65597;SDS011;52267;51.984;20.956;2023-02-24T01:27:16;48.50;;;24.00;;
65597;SDS011;52267;51.984;20.956;2023-02-24T01:29:47;49.80;;;24.50;;
65597;SDS011;52267;51.984;20.956;2023-02-24T01:32:19;41.80;;;23.70;;
65597;SDS011;52267;51.984;20.956;2023-02-24T01:34:50;44.10;;;21.90;;
65597;SDS011;52267;51.984;20.956;2023-02-24T01:37:18;52.10;;;26.90;;
65597;SDS011;52267;51.984;20.956;2023-02-24T01:39:46;27.00;;;14.70;;
65597;SDS011;52267;51.984;20.956;2023-02-24T01:42:16;44.60;;;22.10;;
65597;SDS011;52267;51.984;20.956;2023-02-24T01:47:12;40.00;;;20.00;;
65597;SDS011;52267;51.984;20.956;2023-02-24T01:49:43;43.90;;;23.10;;
65597;SDS011;52267;51.984;20.956;2023-02-24T01:52:23;48.20;;;23.10;;
65597;SDS011;52267;51.984;20.956;2023-02-24T01:54:59;50.90;;;27.50;;
65597;SDS011;52267;51.984;20.956;2023-02-24T01:57:30;48.50;;;23.50;;
65597;SDS011;52267;51.984;20.956;2023-02-24T02:02:48;47.50;;;24.50;;
65597;SDS011;52267;51.984;20.956;2023-02-24T02:05:18;50.00;;;24.50;;
65597;SDS011;52267;51.984;20.956;2023-02-24T02:07:46;60.20;;;26.50;;
65597;SDS011;52267;51.984;20.956;2023-02-24T02:10:15;54.70;;;27.70;;
65597;SDS011;52267;51.984;20.956;2023-02-24T02:12:44;40.20;;;23.80;;
65597;SDS011;52267;51.984;20.956;2023-02-24T02:15:14;55.60;;;27.70;;
65597;SDS011;52267;51.984;20.956;2023-02-24T02:18:14;50.10;;;26.60;;
65597;SDS011;52267;51.984;20.956;2023-02-24T02:26:44;50.10;;;25.90;;
65597;SDS011;52267;51.984;20.956;2023-02-24T02:35:27;45.30;;;26.10;;
65597;SDS011;52267;51.984;20.956;2023-02-24T02:40:49;42.50;;;23.50;;
65597;SDS011;52267;51.984;20.956;2023-02-24T02:43:30;43.80;;;22.30;;
65597;SDS011;52267;51.984;20.956;2023-02-24T02:46:11;58.20;;;27.60;;
65597;SDS011;52267;51.984;20.956;2023-02-24T02:49:18;41.80;;;22.90;;
65597;SDS011;52267;51.984;20.956;2023-02-24T02:51:54;34.00;;;18.70;;
65597;SDS011;52267;51.984;20.956;2023-02-24T02:54:39;52.60;;;28.00;;
65597;SDS011;52267;51.984;20.956;2023-02-24T02:57:18;48.10;;;23.40;;
65597;SDS011;52267;51.984;20.956;2023-02-24T02:59:54;57.30;;;30.40;;
65597;SDS011;52267;51.984;20.956;2023-02-24T03:02:28;60.00;;;28.50;;
65597;SDS011;52267;51.984;20.956;2023-02-24T03:05:06;53.90;;;27.50;;
65597;SDS011;52267;51.984;20.956;2023-02-24T03:07:40;49.20;;;24.90;;
65597;SDS011;52267;51.984;20.956;2023-02-24T03:10:24;53.90;;;27.50;;
65597;SDS011;52267;51.984;20.956;2023-02-24T03:13:11;48.60;;;25.10;;
65597;SDS011;52267;51.984;20.956;2023-02-24T03:15:40;55.80;;;28.20;;
65597;SDS011;52267;51.984;20.956;2023-02-24T03:18:15;54.20;;;28.50;;
65597;SDS011;52267;51.984;20.956;2023-02-24T03:20:53;55.10;;;29.00;;
65597;SDS011;52267;51.984;20.956;2023-02-24T03:23:27;48.30;;;25.20;;
65597;SDS011;52267;51.984;20.956;2023-02-24T03:26:21;51.60;;;28.90;;
65597;SDS011;52267;51.984;20.956;2023-02-24T03:29:12;50.70;;;27.30;;
65597;SDS011;52267;51.984;20.956;2023-02-24T03:37:26;57.40;;;29.90;;
65597;SDS011;52267;51.984;20.956;2023-02-24T03:39:57;49.70;;;25.70;;
65597;SDS011;52267;51.984;20.956;2023-02-24T03:42:33;48.50;;;25.80;;
65597;SDS011;52267;51.984;20.956;2023-02-24T03:45:00;58.10;;;31.10;;
65597;SDS011;52267;51.984;20.956;2023-02-24T03:47:27;60.70;;;30.30;;
65597;SDS011;52267;51.984;20.956;2023-02-24T03:49:55;53.90;;;27.40;;
65597;SDS011;52267;51.984;20.956;2023-02-24T03:52:59;49.20;;;26.00;;
65597;SDS011;52267;51.984;20.956;2023-02-24T03:55:51;62.60;;;31.10;;
65597;SDS011;52267;51.984;20.956;2023-02-24T04:01:41;62.80;;;30.30;;
65597;SDS011;52267;51.984;20.956;2023-02-24T04:13:29;63.90;;;33.20;;
65597;SDS011;52267;51.984;20.956;2023-02-24T04:16:11;64.10;;;31.30;;
65597;SDS011;52267;51.984;20.956;2023-02-24T04:18:47;62.70;;;32.40;;
65597;SDS011;52267;51.984;20.956;2023-02-24T04:21:17;64.50;;;32.70;;
65597;SDS011;52267;51.984;20.956;2023-02-24T04:23:45;61.00;;;31.30;;
65597;SDS011;52267;51.984;20.956;2023-02-24T04:26:14;73.70;;;35.20;;
65597;SDS011;52267;51.984;20.956;2023-02-24T04:28:43;61.90;;;31.10;;
65597;SDS011;52267;51.984;20.956;2023-02-24T04:31:15;63.60;;;33.90;;
65597;SDS011;52267;51.984;20.956;2023-02-24T04:33:44;64.90;;;33.70;;
65597;SDS011;52267;51.984;20.956;2023-02-24T04:36:19;56.20;;;28.90;;
65597;SDS011;52267;51.984;20.956;2023-02-24T04:38:47;63.40;;;33.90;;
65597;SDS011;52267;51.984;20.956;2023-02-24T04:41:15;66.60;;;35.20;;
65597;SDS011;52267;51.984;20.956;2023-02-24T04:43:47;52.80;;;27.50;;
65597;SDS011;52267;51.984;20.956;2023-02-24T04:46:17;53.50;;;29.40;;
65597;SDS011;52267;51.984;20.956;2023-02-24T04:48:45;63.40;;;32.00;;
65597;SDS011;52267;51.984;20.956;2023-02-24T04:51:12;67.40;;;33.80;;
65597;SDS011;52267;51.984;20.956;2023-02-24T04:53:39;62.60;;;33.90;;
65597;SDS011;52267;51.984;20.956;2023-02-24T04:56:07;60.70;;;32.20;;
65597;SDS011;52267;51.984;20.956;2023-02-24T04:58:36;68.40;;;35.40;;
65597;SDS011;52267;51.984;20.956;2023-02-24T05:01:09;66.10;;;33.50;;
65597;SDS011;52267;51.984;20.956;2023-02-24T05:03:37;71.70;;;34.80;;
65597;SDS011;52267;51.984;20.956;2023-02-24T05:06:13;69.20;;;34.20;;
65597;SDS011;52267;51.984;20.956;2023-02-24T05:08:42;57.70;;;30.40;;
65597;SDS011;52267;51.984;20.956;2023-02-24T05:11:14;60.20;;;32.20;;
65597;SDS011;52267;51.984;20.956;2023-02-24T05:13:42;71.00;;;34.50;;
65597;SDS011;52267;51.984;20.956;2023-02-24T05:16:15;65.20;;;33.70;;
65597;SDS011;52267;51.984;20.956;2023-02-24T05:18:43;63.00;;;31.00;;
65597;SDS011;52267;51.984;20.956;2023-02-24T05:21:15;63.80;;;33.00;;
65597;SDS011;52267;51.984;20.956;2023-02-24T05:24:01;67.30;;;33.60;;
65597;SDS011;52267;51.984;20.956;2023-02-24T05:26:38;63.00;;;33.50;;
65597;SDS011;52267;51.984;20.956;2023-02-24T05:29:07;69.10;;;36.10;;
65597;SDS011;52267;51.984;20.956;2023-02-24T05:31:36;65.20;;;30.90;;
65597;SDS011;52267;51.984;20.956;2023-02-24T05:34:06;71.40;;;34.70;;
65597;SDS011;52267;51.984;20.956;2023-02-24T05:36:36;61.70;;;29.30;;
65597;SDS011;52267;51.984;20.956;2023-02-24T05:39:07;70.60;;;35.30;;
65597;SDS011;52267;51.984;20.956;2023-02-24T05:41:41;51.50;;;26.90;;
65597;SDS011;52267;51.984;20.956;2023-02-24T05:44:14;74.90;;;35.50;;
65597;SDS011;52267;51.984;20.956;2023-02-24T05:46:44;69.90;;;33.70;;
65597;SDS011;52267;51.984;20.956;2023-02-24T05:49:18;68.60;;;35.80;;
65597;SDS011;52267;51.984;20.956;2023-02-24T05:51:55;66.50;;;33.40;;
65597;SDS011;52267;51.984;20.956;2023-02-24T05:54:29;73.70;;;36.00;;
65597;SDS011;52267;51.984;20.956;2023-02-24T05:57:03;56.40;;;28.50;;
65597;SDS011;52267;51.984;20.956;2023-02-24T05:59:42;69.60;;;34.70;;
65597;SDS011;52267;51.984;20.956;2023-02-24T06:02:14;68.00;;;34.80;;
65597;SDS011;52267;51.984;20.956;2023-02-24T06:04:44;71.00;;;35.00;;
65597;SDS011;52267;51.984;20.956;2023-02-24T06:07:24;62.30;;;30.10;;
65597;SDS011;52267;51.984;20.956;2023-02-24T06:09:57;67.30;;;34.50;;
65597;SDS011;52267;51.984;20.956;2023-02-24T06:12:30;67.00;;;33.80;;
65597;SDS011;52267;51.984;20.956;2023-02-24T06:15:00;79.60;;;36.60;;
65597;SDS011;52267;51.984;20.956;2023-02-24T06:17:32;66.70;;;32.60;;
65597;SDS011;52267;51.984;20.956;2023-02-24T06:19:59;57.80;;;30.00;;
65597;SDS011;52267;51.984;20.956;2023-02-24T06:22:27;68.00;;;35.90;;
65597;SDS011;52267;51.984;20.956;2023-02-24T06:24:54;59.40;;;31.90;;
65597;SDS011;52267;51.984;20.956;2023-02-24T06:27:22;70.30;;;34.20;;
65597;SDS011;52267;51.984;20.956;2023-02-24T06:29:51;70.40;;;34.10;;
65597;SDS011;52267;51.984;20.956;2023-02-24T06:32:24;66.90;;;33.40;;
65597;SDS011;52267;51.984;20.956;2023-02-24T06:34:52;68.60;;;33.40;;
65597;SDS011;52267;51.984;20.956;2023-02-24T06:37:20;61.30;;;33.20;;
65597;SDS011;52267;51.984;20.956;2023-02-24T06:39:50;60.40;;;31.80;;
65597;SDS011;52267;51.984;20.956;2023-02-24T06:42:17;62.10;;;30.00;;
65597;SDS011;52267;51.984;20.956;2023-02-24T06:44:45;66.90;;;33.50;;
65597;SDS011;52267;51.984;20.956;2023-02-24T06:47:13;52.30;;;29.20;;
65597;SDS011;52267;51.984;20.956;2023-02-24T06:49:43;61.60;;;32.20;;
65597;SDS011;52267;51.984;20.956;2023-02-24T06:52:10;59.80;;;32.30;;
65597;SDS011;52267;51.984;20.956;2023-02-24T06:54:46;57.00;;;27.80;;
65597;SDS011;52267;51.984;20.956;2023-02-24T06:57:14;68.70;;;34.60;;
65597;SDS011;52267;51.984;20.956;2023-02-24T06:59:41;78.20;;;40.60;;
65597;SDS011;52267;51.984;20.956;2023-02-24T07:02:09;73.80;;;39.90;;
65597;SDS011;52267;51.984;20.956;2023-02-24T07:04:36;70.20;;;39.00;;
65597;SDS011;52267;51.984;20.956;2023-02-24T07:07:09;66.20;;;34.80;;
65597;SDS011;52267;51.984;20.956;2023-02-24T07:09:39;74.30;;;37.80;;
65597;SDS011;52267;51.984;20.956;2023-02-24T07:12:10;85.60;;;46.20;;
65597;SDS011;52267;51.984;20.956;2023-02-24T07:14:38;55.20;;;30.30;;
65597;SDS011;52267;51.984;20.956;2023-02-24T07:17:06;54.00;;;29.00;;
65597;SDS011;52267;51.984;20.956;2023-02-24T07:19:34;64.50;;;34.20;;
65597;SDS011;52267;51.984;20.956;2023-02-24T07:22:02;64.20;;;33.50;;
65597;SDS011;52267;51.984;20.956;2023-02-24T07:24:32;60.50;;;31.50;;
65597;SDS011;52267;51.984;20.956;2023-02-24T07:27:07;60.50;;;31.00;;
65597;SDS011;52267;51.984;20.956;2023-02-24T07:29:36;61.10;;;33.10;;
65597;SDS011;52267;51.984;20.956;2023-02-24T07:32:05;61.30;;;33.50;;
65597;SDS011;52267;51.984;20.956;2023-02-24T07:34:34;64.90;;;34.20;;
65597;SDS011;52267;51.984;20.956;2023-02-24T07:37:07;62.30;;;32.60;;
65597;SDS011;52267;51.984;20.956;2023-02-24T07:39:36;84.20;;;41.50;;
65597;SDS011;52267;51.984;20.956;2023-02-24T07:42:06;84.20;;;45.10;;
65597;SDS011;52267;51.984;20.956;2023-02-24T07:44:34;63.50;;;32.40;;
65597;SDS011;52267;51.984;20.956;2023-02-24T07:47:01;69.60;;;36.70;;
65597;SDS011;52267;51.984;20.956;2023-02-24T07:49:34;54.50;;;28.70;;
65597;SDS011;52267;51.984;20.956;2023-02-24T07:52:01;77.50;;;37.90;;
65597;SDS011;52267;51.984;20.956;2023-02-24T07:54:28;55.60;;;31.60;;
65597;SDS011;52267;51.984;20.956;2023-02-24T07:56:57;58.20;;;30.40;;
65597;SDS011;52267;51.984;20.956;2023-02-24T07:59:30;56.90;;;27.60;;
65597;SDS011;52267;51.984;20.956;2023-02-24T08:01:59;73.10;;;38.50;;
65597;SDS011;52267;51.984;20.956;2023-02-24T08:06:58;58.30;;;27.90;;
65597;SDS011;52267;51.984;20.956;2023-02-24T08:09:30;64.40;;;33.00;;
65597;SDS011;52267;51.984;20.956;2023-02-24T08:12:12;62.10;;;31.70;;
65597;SDS011;52267;51.984;20.956;2023-02-24T08:14:45;53.90;;;28.50;;
65597;SDS011;52267;51.984;20.956;2023-02-24T08:17:23;62.30;;;34.50;;
65597;SDS011;52267;51.984;20.956;2023-02-24T08:19:53;55.40;;;29.00;;
65597;SDS011;52267;51.984;20.956;2023-02-24T08:22:40;58.30;;;31.40;;
65597;SDS011;52267;51.984;20.956;2023-02-24T08:25:13;71.30;;;38.70;;
65597;SDS011;52267;51.984;20.956;2023-02-24T08:27:53;61.30;;;34.30;;
65597;SDS011;52267;51.984;20.956;2023-02-24T08:30:24;49.40;;;28.20;;
65597;SDS011;52267;51.984;20.956;2023-02-24T08:32:56;48.20;;;25.40;;
65597;SDS011;52267;51.984;20.956;2023-02-24T08:35:29;53.50;;;27.30;;
65597;SDS011;52267;51.984;20.956;2023-02-24T08:38:10;55.00;;;29.90;;
65597;SDS011;52267;51.984;20.956;2023-02-24T08:40:50;64.70;;;36.40;;
65597;SDS011;52267;51.984;20.956;2023-02-24T08:43:36;50.00;;;26.70;;
65597;SDS011;52267;51.984;20.956;2023-02-24T08:49:00;44.30;;;25.90;;
65597;SDS011;52267;51.984;20.956;2023-02-24T08:51:30;47.00;;;26.50;;
65597;SDS011;52267;51.984;20.956;2023-02-24T08:54:03;68.80;;;38.20;;
65597;SDS011;52267;51.984;20.956;2023-02-24T08:56:37;54.60;;;28.80;;
65597;SDS011;52267;51.984;20.956;2023-02-24T08:59:14;58.40;;;32.30;;
65597;SDS011;52267;51.984;20.956;2023-02-24T09:01:58;67.90;;;35.20;;
65597;SDS011;52267;51.984;20.956;2023-02-24T09:04:50;62.80;;;34.20;;
65597;SDS011;52267;51.984;20.956;2023-02-24T09:07:33;53.10;;;29.80;;
65597;SDS011;52267;51.984;20.956;2023-02-24T09:10:13;41.50;;;25.00;;
65597;SDS011;52267;51.984;20.956;2023-02-24T09:12:44;56.20;;;27.70;;
65597;SDS011;52267;51.984;20.956;2023-02-24T09:15:12;53.80;;;29.20;;
65597;SDS011;52267;51.984;20.956;2023-02-24T09:17:43;42.80;;;24.30;;
65597;SDS011;52267;51.984;20.956;2023-02-24T09:20:31;39.60;;;22.10;;
65597;SDS011;52267;51.984;20.956;2023-02-24T09:23:27;40.10;;;22.10;;
65597;SDS011;52267;51.984;20.956;2023-02-24T09:26:12;55.50;;;30.10;;
65597;SDS011;52267;51.984;20.956;2023-02-24T09:28:40;69.70;;;36.80;;
65597;SDS011;52267;51.984;20.956;2023-02-24T09:31:20;50.00;;;26.50;;
65597;SDS011;52267;51.984;20.956;2023-02-24T09:34:07;44.90;;;26.10;;
65597;SDS011;52267;51.984;20.956;2023-02-24T09:36:36;39.90;;;23.30;;
65597;SDS011;52267;51.984;20.956;2023-02-24T09:39:10;32.40;;;19.10;;
65597;SDS011;52267;51.984;20.956;2023-02-24T09:52:58;32.20;;;18.20;;
65597;SDS011;52267;51.984;20.956;2023-02-24T09:55:52;38.30;;;20.50;;
65597;SDS011;52267;51.984;20.956;2023-02-24T09:58:46;35.90;;;21.60;;
65597;SDS011;52267;51.984;20.956;2023-02-24T10:01:45;40.40;;;20.90;;
65597;SDS011;52267;51.984;20.956;2023-02-24T10:06:57;84.30;;;39.40;;
65597;SDS011;52267;51.984;20.956;2023-02-24T10:10:21;54.40;;;27.60;;
65597;SDS011;52267;51.984;20.956;2023-02-24T10:13:02;35.30;;;20.30;;
65597;SDS011;52267;51.984;20.956;2023-02-24T10:15:44;39.10;;;21.60;;
65597;SDS011;52267;51.984;20.956;2023-02-24T10:21:37;32.70;;;17.50;;
65597;SDS011;52267;51.984;20.956;2023-02-24T10:27:08;29.20;;;16.00;;
65597;SDS011;52267;51.984;20.956;2023-02-24T10:30:21;35.10;;;19.10;;
65597;SDS011;52267;51.984;20.956;2023-02-24T10:33:36;32.10;;;18.40;;
65597;SDS011;52267;51.984;20.956;2023-02-24T10:36:16;36.80;;;20.10;;
65597;SDS011;52267;51.984;20.956;2023-02-24T10:38:45;46.50;;;21.90;;
65597;SDS011;52267;51.984;20.956;2023-02-24T10:41:13;37.20;;;20.90;;
65597;SDS011;52267;51.984;20.956;2023-02-24T10:43:52;39.40;;;20.90;;
65597;SDS011;52267;51.984;20.956;2023-02-24T10:46:27;30.30;;;17.50;;
65597;SDS011;52267;51.984;20.956;2023-02-24T10:49:03;36.80;;;20.30;;
65597;SDS011;52267;51.984;20.956;2023-02-24T10:51:37;37.30;;;20.00;;
65597;SDS011;52267;51.984;20.956;2023-02-24T10:54:19;32.30;;;17.20;;
65597;SDS011;52267;51.984;20.956;2023-02-24T10:57:07;31.80;;;17.40;;
65597;SDS011;52267;51.984;20.956;2023-02-24T11:02:51;23.40;;;13.10;;
65597;SDS011;52267;51.984;20.956;2023-02-24T11:05:38;21.60;;;12.40;;
65597;SDS011;52267;51.984;20.956;2023-02-24T11:08:22;18.50;;;11.90;;
65597;SDS011;52267;51.984;20.956;2023-02-24T11:11:32;21.20;;;12.40;;
65597;SDS011;52267;51.984;20.956;2023-02-24T11:14:20;15.40;;;9.60;;
65597;SDS011;52267;51.984;20.956;2023-02-24T11:17:18;13.00;;;8.00;;
65597;SDS011;52267;51.984;20.956;2023-02-24T11:19:59;13.50;;;6.80;;
65597;SDS011;52267;51.984;20.956;2023-02-24T11:22:40;7.00;;;4.70;;
65597;SDS011;52267;51.984;20.956;2023-02-24T11:25:25;12.40;;;5.90;;
65597;SDS011;52267;51.984;20.956;2023-02-24T11:31:43;7.70;;;5.30;;
65597;SDS011;52267;51.984;20.956;2023-02-24T11:37:47;12.20;;;6.20;;
65597;SDS011;52267;51.984;20.956;2023-02-24T11:40:20;8.70;;;4.60;;
65597;SDS011;52267;51.984;20.956;2023-02-24T11:43:02;9.90;;;5.00;;
65597;SDS011;52267;51.984;20.956;2023-02-24T11:45:38;8.40;;;4.30;;
65597;SDS011;52267;51.984;20.956;2023-02-24T11:48:23;9.70;;;5.20;;
65597;SDS011;52267;51.984;20.956;2023-02-24T11:51:31;9.40;;;4.70;;
65597;SDS011;52267;51.984;20.956;2023-02-24T11:56:45;7.60;;;4.30;;
65597;SDS011;52267;51.984;20.956;2023-02-24T12:05:38;10.00;;;5.60;;
65597;SDS011;52267;51.984;20.956;2023-02-24T12:10:57;10.20;;;5.00;;
65597;SDS011;52267;51.984;20.956;2023-02-24T12:13:43;9.00;;;5.40;;
65597;SDS011;52267;51.984;20.956;2023-02-24T12:16:21;8.80;;;4.50;;
65597;SDS011;52267;51.984;20.956;2023-02-24T12:19:12;9.50;;;5.10;;
65597;SDS011;52267;51.984;20.956;2023-02-24T12:21:52;10.80;;;4.90;;
65597;SDS011;52267;51.984;20.956;2023-02-24T12:24:24;11.30;;;5.60;;
65597;SDS011;52267;51.984;20.956;2023-02-24T12:27:55;11.60;;;6.30;;
65597;SDS011;52267;51.984;20.956;2023-02-24T12:30:28;8.10;;;4.50;;
65597;SDS011;52267;51.984;20.956;2023-02-24T12:33:25;7.90;;;5.20;;
65597;SDS011;52267;51.984;20.956;2023-02-24T12:39:12;11.30;;;6.10;;
65597;SDS011;52267;51.984;20.956;2023-02-24T12:42:10;8.80;;;4.20;;
65597;SDS011;52267;51.984;20.956;2023-02-24T12:56:55;7.10;;;4.50;;
65597;SDS011;52267;51.984;20.956;2023-02-24T12:59:29;13.20;;;7.50;;
65597;SDS011;52267;51.984;20.956;2023-02-24T13:02:10;13.50;;;7.10;;
65597;SDS011;52267;51.984;20.956;2023-02-24T13:15:25;19.60;;;10.80;;
65597;SDS011;52267;51.984;20.956;2023-02-24T13:17:57;17.60;;;9.90;;
65597;SDS011;52267;51.984;20.956;2023-02-24T13:22:54;15.60;;;8.80;;
65597;SDS011;52267;51.984;20.956;2023-02-24T13:25:34;21.50;;;10.10;;
65597;SDS011;52267;51.984;20.956;2023-02-24T13:28:05;21.50;;;10.20;;
65597;SDS011;52267;51.984;20.956;2023-02-24T13:30:56;20.80;;;10.60;;
65597;SDS011;52267;51.984;20.956;2023-02-24T13:33:40;13.10;;;7.80;;
65597;SDS011;52267;51.984;20.956;2023-02-24T13:36:17;15.00;;;8.80;;
65597;SDS011;52267;51.984;20.956;2023-02-24T13:39:06;20.10;;;11.30;;
65597;SDS011;52267;51.984;20.956;2023-02-24T13:41:45;17.10;;;10.20;;
65597;SDS011;52267;51.984;20.956;2023-02-24T14:02:01;22.50;;;12.40;;
65597;SDS011;52267;51.984;20.956;2023-02-24T14:04:45;20.90;;;11.20;;
65597;SDS011;52267;51.984;20.956;2023-02-24T14:07:28;20.60;;;10.50;;
65597;SDS011;52267;51.984;20.956;2023-02-24T14:12:33;21.80;;;12.10;;
65597;SDS011;52267;51.984;20.956;2023-02-24T14:15:02;20.10;;;10.30;;
65597;SDS011;52267;51.984;20.956;2023-02-24T14:17:35;18.80;;;10.10;;
65597;SDS011;52267;51.984;20.956;2023-02-24T14:22:44;19.10;;;10.90;;
65597;SDS011;52267;51.984;20.956;2023-02-24T14:25:16;23.70;;;12.60;;
65597;SDS011;52267;51.984;20.956;2023-02-24T14:27:47;24.00;;;12.40;;
65597;SDS011;52267;51.984;20.956;2023-02-24T14:30:38;16.50;;;9.30;;
65597;SDS011;52267;51.984;20.956;2023-02-24T14:33:07;23.80;;;12.60;;
65597;SDS011;52267;51.984;20.956;2023-02-24T14:35:48;21.10;;;11.50;;
65597;SDS011;52267;51.984;20.956;2023-02-24T14:38:36;19.40;;;11.80;;
65597;SDS011;52267;51.984;20.956;2023-02-24T14:41:14;24.00;;;16.00;;
65597;SDS011;52267;51.984;20.956;2023-02-24T14:43:47;25.20;;;13.50;;
65597;SDS011;52267;51.984;20.956;2023-02-24T14:46:14;31.00;;;14.70;;
65597;SDS011;52267;51.984;20.956;2023-02-24T14:48:43;27.20;;;13.50;;
65597;SDS011;52267;51.984;20.956;2023-02-24T14:51:24;25.00;;;13.70;;
65597;SDS011;52267;51.984;20.956;2023-02-24T14:53:57;21.80;;;12.60;;
65597;SDS011;52267;51.984;20.956;2023-02-24T14:56:33;27.20;;;14.60;;
65597;SDS011;52267;51.984;20.956;2023-02-24T14:59:07;31.60;;;14.80;;
65597;SDS011;52267;51.984;20.956;2023-02-24T15:01:50;34.70;;;19.70;;
65597;SDS011;52267;51.984;20.956;2023-02-24T15:04:36;25.40;;;14.20;;
65597;SDS011;52267;51.984;20.956;2023-02-24T15:07:14;24.40;;;13.90;;
65597;SDS011;52267;51.984;20.956;2023-02-24T15:09:49;25.60;;;13.20;;
65597;SDS011;52267;51.984;20.956;2023-02-24T15:12:22;26.50;;;13.90;;
65597;SDS011;52267;51.984;20.956;2023-02-24T15:15:04;26.10;;;14.60;;
65597;SDS011;52267;51.984;20.956;2023-02-24T15:17:39;24.70;;;13.90;;
65597;SDS011;52267;51.984;20.956;2023-02-24T15:20:42;22.40;;;10.70;;
65597;SDS011;52267;51.984;20.956;2023-02-24T15:23:30;27.00;;;14.30;;
65597;SDS011;52267;51.984;20.956;2023-02-24T15:25:59;32.50;;;15.90;;
65597;SDS011;52267;51.984;20.956;2023-02-24T15:28:29;27.70;;;15.00;;
65597;SDS011;52267;51.984;20.956;2023-02-24T15:31:07;24.70;;;14.20;;
65597;SDS011;52267;51.984;20.956;2023-02-24T15:33:52;20.50;;;11.70;;
65597;SDS011;52267;51.984;20.956;2023-02-24T15:36:24;28.90;;;16.50;;
65597;SDS011;52267;51.984;20.956;2023-02-24T15:39:05;28.90;;;13.70;;
65597;SDS011;52267;51.984;20.956;2023-02-24T15:41:43;25.90;;;15.40;;
65597;SDS011;52267;51.984;20.956;2023-02-24T15:44:27;29.20;;;15.80;;
65597;SDS011;52267;51.984;20.956;2023-02-24T15:46:57;23.90;;;13.60;;
65597;SDS011;52267;51.984;20.956;2023-02-24T15:49:26;70.10;;;35.20;;
65597;SDS011;52267;51.984;20.956;2023-02-24T15:51:54;75.80;;;42.90;;
65597;SDS011;52267;51.984;20.956;2023-02-24T15:54:31;27.30;;;15.60;;
65597;SDS011;52267;51.984;20.956;2023-02-24T15:57:01;46.40;;;25.00;;
65597;SDS011;52267;51.984;20.956;2023-02-24T15:59:29;31.70;;;17.80;;
65597;SDS011;52267;51.984;20.956;2023-02-24T16:01:56;32.20;;;19.40;;
65597;SDS011;52267;51.984;20.956;2023-02-24T16:04:23;32.10;;;19.60;;
65597;SDS011;52267;51.984;20.956;2023-02-24T16:06:55;33.40;;;17.30;;
65597;SDS011;52267;51.984;20.956;2023-02-24T16:09:43;32.40;;;16.40;;
65597;SDS011;52267;51.984;20.956;2023-02-24T16:12:24;33.10;;;19.50;;
65597;SDS011;52267;51.984;20.956;2023-02-24T16:14:58;33.70;;;17.90;;
65597;SDS011;52267;51.984;20.956;2023-02-24T16:20:06;26.90;;;15.10;;
65597;SDS011;52267;51.984;20.956;2023-02-24T16:22:38;26.30;;;14.20;;
65597;SDS011;52267;51.984;20.956;2023-02-24T16:25:05;29.30;;;16.70;;
65597;SDS011;52267;51.984;20.956;2023-02-24T16:27:33;23.90;;;15.10;;
65597;SDS011;52267;51.984;20.956;2023-02-24T16:30:01;28.50;;;15.60;;
65597;SDS011;52267;51.984;20.956;2023-02-24T16:32:29;30.70;;;16.00;;
65597;SDS011;52267;51.984;20.956;2023-02-24T16:34:56;28.90;;;16.10;;
65597;SDS011;52267;51.984;20.956;2023-02-24T16:37:28;28.10;;;14.80;;
65597;SDS011;52267;51.984;20.956;2023-02-24T16:39:57;34.10;;;15.90;;
65597;SDS011;52267;51.984;20.956;2023-02-24T16:42:25;26.50;;;13.20;;
65597;SDS011;52267;51.984;20.956;2023-02-24T16:44:53;27.40;;;13.30;;
65597;SDS011;52267;51.984;20.956;2023-02-24T16:47:22;26.00;;;14.00;;
65597;SDS011;52267;51.984;20.956;2023-02-24T16:49:52;25.50;;;14.70;;
65597;SDS011;52267;51.984;20.956;2023-02-24T16:52:23;25.60;;;13.80;;
65597;SDS011;52267;51.984;20.956;2023-02-24T16:54:51;30.80;;;13.90;;
65597;SDS011;52267;51.984;20.956;2023-02-24T16:57:18;29.60;;;14.70;;
65597;SDS011;52267;51.984;20.956;2023-02-24T16:59:51;31.70;;;15.80;;
65597;SDS011;52267;51.984;20.956;2023-02-24T17:02:21;28.80;;;14.40;;
65597;SDS011;52267;51.984;20.956;2023-02-24T17:04:50;27.00;;;14.40;;
65597;SDS011;52267;51.984;20.956;2023-02-24T17:07:18;26.90;;;16.10;;
65597;SDS011;52267;51.984;20.956;2023-02-24T17:09:47;37.30;;;22.00;;
65597;SDS011;52267;51.984;20.956;2023-02-24T17:12:16;31.50;;;20.40;;
65597;SDS011;52267;51.984;20.956;2023-02-24T17:14:46;36.70;;;21.40;;
65597;SDS011;52267;51.984;20.956;2023-02-24T17:17:15;30.90;;;20.50;;